createdAt,value
2023-04-19T00:00:12.217Z,88.85
2023-04-19T00:02:40.414Z,88.70
2023-04-19T00:05:08.650Z,88.58
2023-04-19T00:07:35.385Z,89.24
2023-04-19T00:10:01.880Z,88.76
2023-04-19T00:12:28.366Z,88.92
2023-04-19T00:14:54.765Z,88.87
2023-04-19T00:17:21.263Z,89.08
2023-04-19T00:19:47.936Z,89.15
2023-04-19T00:22:14.359Z,88.92
2023-04-19T00:24:40.799Z,88.83
2023-04-19T00:27:07.274Z,88.96
2023-04-19T00:29:33.749Z,89.04
2023-04-19T00:32:00.175Z,88.91
2023-04-19T00:34:26.648Z,88.86
2023-04-19T00:36:56.333Z,88.85
2023-04-19T00:39:22.713Z,89.14
2023-04-19T00:41:49.180Z,89.08
2023-04-19T00:44:18.269Z,88.75
2023-04-19T00:46:45.391Z,88.78
2023-04-19T00:49:11.981Z,89.17
2023-04-19T00:51:38.500Z,89.19
2023-04-19T00:54:06.519Z,89.35
2023-04-19T00:56:34.342Z,89.56
2023-04-19T00:59:01.247Z,89.62
2023-04-19T01:01:28.809Z,89.76
2023-04-19T01:03:55.549Z,89.70
2023-04-19T01:06:22.130Z,89.75
2023-04-19T01:08:48.524Z,89.24
2023-04-19T01:11:14.916Z,89.39
2023-04-19T01:13:44.286Z,89.86
2023-04-19T01:16:11.147Z,89.85
2023-04-19T01:18:39.343Z,89.61
2023-04-19T01:21:06.823Z,89.64
2023-04-19T01:23:33.455Z,89.64
2023-04-19T01:26:01.590Z,89.73
2023-04-19T01:28:28.606Z,89.84
2023-04-19T01:30:55.167Z,89.97
2023-04-19T01:33:22.418Z,89.42
2023-04-19T01:35:49.099Z,90.01
2023-04-19T01:38:16.511Z,90.08
2023-04-19T01:40:43.385Z,89.77
2023-04-19T01:43:13.732Z,90.08
2023-04-19T01:45:40.332Z,90.12
2023-04-19T01:48:07.172Z,90.04
2023-04-19T01:50:34.369Z,90.27
2023-04-19T01:53:01.230Z,90.29
2023-04-19T01:55:29.531Z,90.07
2023-04-19T01:57:56.079Z,90.35
2023-04-19T02:00:23.220Z,90.28
2023-04-19T02:02:49.858Z,90.85
2023-04-19T02:05:16.487Z,90.56
2023-04-19T02:07:42.906Z,90.39
2023-04-19T02:10:11.461Z,90.40
2023-04-19T02:12:38.040Z,90.69
2023-04-19T02:15:04.996Z,90.28
2023-04-19T02:17:34.051Z,90.61
2023-04-19T02:20:00.572Z,90.76
2023-04-19T02:22:27.015Z,91.20
2023-04-19T02:24:53.811Z,91.20
2023-04-19T02:27:26.769Z,90.77
2023-04-19T02:29:54.199Z,90.91
2023-04-19T02:32:20.728Z,91.05
2023-04-19T02:34:47.201Z,91.18
2023-04-19T02:37:13.752Z,91.02
2023-04-19T02:39:42.516Z,91.66
2023-04-19T02:42:08.951Z,91.67
2023-04-19T02:44:35.450Z,91.81
2023-04-19T02:47:01.887Z,92.05
2023-04-19T02:49:33.090Z,91.67
2023-04-19T02:52:00.134Z,91.64
2023-04-19T02:54:26.726Z,91.53
2023-04-19T02:56:53.484Z,91.51
2023-04-19T02:59:20.008Z,91.52
2023-04-19T03:01:46.860Z,91.38
2023-04-19T03:04:13.623Z,91.53
2023-04-19T03:06:42.105Z,91.69
2023-04-19T03:09:08.589Z,91.19
2023-04-19T03:11:37.055Z,91.23
2023-04-19T03:14:03.690Z,91.13
2023-04-19T03:16:30.354Z,91.11
2023-04-19T03:18:57.706Z,91.53
2023-04-19T03:21:29.157Z,91.20
2023-04-19T03:23:56.138Z,91.73
2023-04-19T03:26:24.558Z,91.45
2023-04-19T03:28:53.325Z,90.93
2023-04-19T03:31:38.313Z,91.15
2023-04-19T03:34:05.284Z,91.44
2023-04-19T03:36:39.612Z,90.92
2023-04-19T03:39:07.064Z,91.08
2023-04-19T03:41:35.692Z,91.54
2023-04-19T03:44:09.634Z,91.30
2023-04-19T03:46:37.411Z,91.14
2023-04-19T03:49:04.131Z,91.43
2023-04-19T03:51:31.523Z,91.21
2023-04-19T03:53:58.002Z,91.19
2023-04-19T03:56:24.755Z,91.55
2023-04-19T03:58:52.261Z,91.42
2023-04-19T04:01:19.969Z,90.97
2023-04-19T04:03:46.833Z,91.86
2023-04-19T04:06:13.480Z,91.03
2023-04-19T04:08:40.049Z,91.42
2023-04-19T04:11:06.481Z,91.73
2023-04-19T04:13:33.139Z,91.54
2023-04-19T04:16:13.681Z,91.28
2023-04-19T04:18:40.452Z,91.29
2023-04-19T04:21:10.174Z,91.72
2023-04-19T04:23:39.988Z,91.61
2023-04-19T04:26:11.061Z,91.92
2023-04-19T04:28:50.727Z,91.78
2023-04-19T04:31:19.015Z,92.52
2023-04-19T04:33:46.433Z,91.97
2023-04-19T04:36:15.353Z,92.47
2023-04-19T04:38:41.893Z,92.54
2023-04-19T04:41:08.721Z,92.10
2023-04-19T04:43:35.186Z,92.22
2023-04-19T04:46:01.874Z,92.14
2023-04-19T04:48:33.476Z,92.37
2023-04-19T04:50:59.903Z,92.62
2023-04-19T04:53:28.371Z,92.85
2023-04-19T04:55:55.189Z,92.25
2023-04-19T04:58:21.685Z,92.52
2023-04-19T05:00:59.269Z,92.54
2023-04-19T05:03:27.368Z,92.58
2023-04-19T05:05:57.726Z,92.45
2023-04-19T05:08:27.243Z,92.76
2023-04-19T05:10:58.612Z,92.66
2023-04-19T05:13:28.594Z,92.53
2023-04-19T05:15:55.494Z,93.01
2023-04-19T05:18:24.130Z,92.58
2023-04-19T05:20:50.656Z,92.59
2023-04-19T05:23:21.486Z,91.86
2023-04-19T05:25:49.840Z,91.79
2023-04-19T05:28:16.500Z,91.88
2023-04-19T05:30:55.545Z,91.45
2023-04-19T05:33:24.772Z,91.86
2023-04-19T05:35:54.419Z,91.88
2023-04-19T05:38:20.919Z,92.25
2023-04-19T05:40:48.998Z,91.13
2023-04-19T05:43:15.411Z,91.20
2023-04-19T05:45:42.372Z,91.41
2023-04-19T05:48:08.931Z,91.10
2023-04-19T05:51:01.269Z,91.61
2023-04-19T05:53:46.322Z,91.51
2023-04-19T05:56:13.057Z,90.79
2023-04-19T05:58:40.565Z,90.55
2023-04-19T06:01:07.936Z,90.86
2023-04-19T06:03:34.687Z,90.56
2023-04-19T06:06:01.690Z,90.51
2023-04-19T06:08:28.177Z,90.51
2023-04-19T06:13:23.855Z,89.76
2023-04-19T06:15:50.415Z,89.87
2023-04-19T06:18:18.891Z,90.01
2023-04-19T06:20:46.669Z,89.99
2023-04-19T06:23:14.687Z,89.72
2023-04-19T06:25:41.209Z,89.57
2023-04-19T06:28:07.665Z,89.41
2023-04-19T06:30:34.068Z,89.56
2023-04-19T06:33:00.595Z,89.71
2023-04-19T06:35:27.053Z,89.32
2023-04-19T06:37:53.512Z,89.23
2023-04-19T06:40:20.169Z,88.72
2023-04-19T06:42:46.557Z,88.94
2023-04-19T06:45:13.114Z,88.24
2023-04-19T06:47:39.516Z,88.18
2023-04-19T06:50:06.720Z,88.16
2023-04-19T06:52:33.135Z,88.33
2023-04-19T06:54:59.611Z,87.88
2023-04-19T06:57:26.078Z,88.03
2023-04-19T06:59:55.490Z,87.61
2023-04-19T07:02:22.097Z,87.45
2023-04-19T07:04:48.703Z,87.47
2023-04-19T07:07:15.595Z,87.40
2023-04-19T07:09:42.190Z,86.83
2023-04-19T07:12:08.736Z,86.85
2023-04-19T07:14:35.185Z,86.54
2023-04-19T07:17:01.593Z,86.78
2023-04-19T07:19:29.035Z,86.47
2023-04-19T07:21:55.596Z,86.59
2023-04-19T07:24:22.181Z,86.34
2023-04-19T07:26:48.599Z,85.95
2023-04-19T07:29:15.050Z,85.86
2023-04-19T07:31:42.114Z,85.46
2023-04-19T07:34:08.947Z,85.58
2023-04-19T07:36:36.948Z,84.94
2023-04-19T07:39:04.755Z,84.29
2023-04-19T07:41:32.356Z,84.10
2023-04-19T07:43:58.760Z,84.15
2023-04-19T07:46:25.295Z,84.38
2023-04-19T07:48:51.999Z,83.87
2023-04-19T07:51:19.359Z,83.25
2023-04-19T07:53:47.416Z,82.14
2023-04-19T07:56:15.316Z,81.90
2023-04-19T07:58:41.851Z,81.80
2023-04-19T08:01:08.735Z,81.85
2023-04-19T08:03:36.492Z,81.76
2023-04-19T08:06:09.697Z,81.34
2023-04-19T08:08:36.807Z,81.29
2023-04-19T08:11:04.837Z,80.96
2023-04-19T08:13:31.257Z,81.13
2023-04-19T08:18:27.264Z,80.92
2023-04-19T08:20:53.901Z,80.40
2023-04-19T08:23:25.791Z,80.82
2023-04-19T08:25:56.088Z,80.35
2023-04-19T08:28:23.076Z,79.58
2023-04-19T08:30:49.469Z,78.52
2023-04-19T08:33:15.987Z,77.31
2023-04-19T08:35:42.534Z,76.84
2023-04-19T08:38:09.241Z,76.67
2023-04-19T08:40:41.431Z,76.09
2023-04-19T08:43:07.969Z,76.01
2023-04-19T08:45:35.345Z,76.04
2023-04-19T08:48:02.769Z,75.93
2023-04-19T08:50:38.792Z,75.16
2023-04-19T08:55:59.244Z,74.97
2023-04-19T08:58:41.326Z,75.15
2023-04-19T09:04:02.509Z,75.16
2023-04-19T09:06:40.616Z,75.15
2023-04-19T09:09:34.172Z,74.68
2023-04-19T09:12:02.560Z,74.60
2023-04-19T09:14:29.180Z,73.48
2023-04-19T09:17:13.451Z,73.16
2023-04-19T09:19:47.730Z,72.63
2023-04-19T09:22:14.699Z,71.77
2023-04-19T09:27:12.110Z,71.77
2023-04-19T09:29:38.768Z,71.05
2023-04-19T09:32:06.053Z,71.13
2023-04-19T09:34:32.484Z,70.13
2023-04-19T09:37:20.824Z,69.40
2023-04-19T09:39:59.038Z,69.65
2023-04-19T09:43:05.279Z,69.13
2023-04-19T09:45:45.205Z,68.63
2023-04-19T09:48:13.346Z,68.63
2023-04-19T09:51:02.748Z,68.97
2023-04-19T09:53:34.263Z,69.41
2023-04-19T09:56:03.100Z,68.92
2023-04-19T09:58:46.194Z,69.24
2023-04-19T10:01:18.687Z,69.55
2023-04-19T10:03:49.061Z,69.66
2023-04-19T10:06:40.162Z,69.43
2023-04-19T10:09:04.822Z,70.00
2023-04-19T10:11:38.741Z,70.16
2023-04-19T10:14:10.051Z,70.67
2023-04-19T10:16:38.865Z,70.64
2023-04-19T10:19:11.269Z,71.21
2023-04-19T10:21:38.478Z,71.86
2023-04-19T10:24:05.811Z,71.72
2023-04-19T10:27:06.938Z,71.13
2023-04-19T10:29:51.409Z,71.65
2023-04-19T10:32:17.953Z,71.91
2023-04-19T10:34:46.410Z,72.17
2023-04-19T10:37:16.554Z,72.51
2023-04-19T10:39:44.646Z,72.82
2023-04-19T10:42:11.227Z,72.95
2023-04-19T10:44:37.622Z,73.03
2023-04-19T10:47:05.913Z,72.65
2023-04-19T10:49:45.590Z,72.95
2023-04-19T10:52:29.457Z,72.41
2023-04-19T10:54:56.887Z,72.49
2023-04-19T10:57:25.221Z,72.79
2023-04-19T11:00:25.651Z,73.17
2023-04-19T11:02:52.260Z,73.50
2023-04-19T11:05:20.293Z,74.35
2023-04-19T11:07:46.841Z,74.55
2023-04-19T11:10:13.437Z,74.74
2023-04-19T11:12:43.778Z,73.64
2023-04-19T11:15:11.780Z,73.08
2023-04-19T11:17:39.516Z,73.55
2023-04-19T11:20:10.147Z,73.82
2023-04-19T11:22:41.878Z,74.19
2023-04-19T11:25:12.584Z,74.54
2023-04-19T11:27:41.049Z,74.21
2023-04-19T11:30:11.465Z,74.45
2023-04-19T11:32:39.015Z,75.00
2023-04-19T11:35:07.936Z,74.99
2023-04-19T11:37:36.441Z,76.09
2023-04-19T11:40:05.402Z,76.67
2023-04-19T11:42:33.147Z,77.07
2023-04-19T11:44:59.899Z,77.88
2023-04-19T11:47:27.134Z,78.63
2023-04-19T11:49:55.201Z,79.02
2023-04-19T11:52:26.246Z,79.89
2023-04-19T11:54:53.856Z,79.93
2023-04-19T11:57:32.255Z,80.80
2023-04-19T12:00:12.506Z,81.44
2023-04-19T12:02:40.861Z,82.29
2023-04-19T12:05:16.430Z,83.03
2023-04-19T12:08:03.620Z,83.52
2023-04-19T12:10:33.468Z,84.33
2023-04-19T12:13:00.074Z,85.02
2023-04-19T12:15:42.931Z,85.58
2023-04-19T12:18:09.521Z,86.17
2023-04-19T12:20:37.593Z,86.39
2023-04-19T12:23:04.561Z,86.83
2023-04-19T12:25:33.123Z,86.93
2023-04-19T12:28:04.120Z,87.51
2023-04-19T12:30:30.727Z,87.55
2023-04-19T12:32:58.840Z,87.72
2023-04-19T12:35:29.678Z,87.96
2023-04-19T12:37:57.896Z,88.43
2023-04-19T12:40:26.277Z,88.20
2023-04-19T12:42:53.823Z,88.90
2023-04-19T12:45:21.119Z,88.93
2023-04-19T12:47:49.182Z,89.15
2023-04-19T12:50:16.403Z,89.21
2023-04-19T12:52:44.431Z,89.60
2023-04-19T12:55:10.956Z,89.61
2023-04-19T12:57:37.381Z,89.78
2023-04-19T13:00:06.042Z,90.18
2023-04-19T13:02:34.340Z,90.55
2023-04-19T13:05:00.933Z,90.78
2023-04-19T13:07:28.494Z,90.89
2023-04-19T13:09:56.539Z,90.95
2023-04-19T13:12:23.894Z,91.32
2023-04-19T13:14:52.120Z,91.79
2023-04-19T13:17:20.074Z,91.82
2023-04-19T13:19:47.351Z,92.07
2023-04-19T13:22:14.128Z,92.51
2023-04-19T13:24:40.621Z,92.28
2023-04-19T13:27:08.699Z,92.36
2023-04-19T13:29:35.690Z,92.22
2023-04-19T13:32:02.478Z,92.21
2023-04-19T13:34:29.193Z,92.23
2023-04-19T13:36:55.831Z,91.98
2023-04-19T13:39:22.445Z,91.57
2023-04-19T13:41:48.881Z,91.59
2023-04-19T13:44:15.741Z,91.44
2023-04-19T13:46:42.475Z,91.44
2023-04-19T13:49:09.056Z,91.25
2023-04-19T13:51:48.829Z,91.16
2023-04-19T13:54:20.625Z,90.64
2023-04-19T13:56:49.790Z,90.58
2023-04-19T13:59:17.146Z,90.78
2023-04-19T14:01:43.592Z,90.50
2023-04-19T14:04:10.294Z,90.19
2023-04-19T14:06:37.079Z,90.15
2023-04-19T14:09:03.577Z,90.21
2023-04-19T14:11:30.361Z,90.51
2023-04-19T14:13:56.865Z,90.29
2023-04-19T14:16:25.196Z,90.08
2023-04-19T14:18:52.419Z,89.94
2023-04-19T14:21:19.068Z,89.69
2023-04-19T14:23:45.456Z,89.79
2023-04-19T14:26:11.939Z,89.23
2023-04-19T14:28:38.356Z,89.43
2023-04-19T14:31:04.883Z,89.16
2023-04-19T14:33:31.797Z,89.24
2023-04-19T14:35:58.338Z,89.01
2023-04-19T14:38:24.794Z,89.24
2023-04-19T14:40:51.252Z,89.22
2023-04-19T14:43:17.910Z,89.24
2023-04-19T14:45:44.394Z,89.28
2023-04-19T14:48:10.940Z,88.99
2023-04-19T14:50:37.462Z,89.19
2023-04-19T14:53:03.895Z,88.74
2023-04-19T14:55:30.364Z,88.69
2023-04-19T14:57:56.767Z,88.98
2023-04-19T15:00:23.226Z,88.79
2023-04-19T15:02:49.831Z,88.36
2023-04-19T15:05:17.058Z,88.53
2023-04-19T15:07:43.761Z,88.60
2023-04-19T15:10:10.441Z,88.04
2023-04-19T15:12:36.876Z,87.97
2023-04-19T15:15:03.673Z,88.25
2023-04-19T15:17:30.331Z,87.64
2023-04-19T15:19:56.861Z,87.33
2023-04-19T15:22:23.333Z,86.96
2023-04-19T15:24:49.860Z,87.28
2023-04-19T15:27:16.256Z,87.35
2023-04-19T15:29:42.760Z,87.27
2023-04-19T15:32:09.194Z,86.90
2023-04-19T15:34:36.052Z,86.72
2023-04-19T15:37:05.816Z,86.43
2023-04-19T15:39:32.337Z,86.31
2023-04-19T15:41:58.822Z,85.99
2023-04-19T15:44:25.343Z,85.96
2023-04-19T15:46:51.842Z,85.69
2023-04-19T15:49:18.479Z,85.58
2023-04-19T15:51:45.436Z,85.27
2023-04-19T15:54:14.241Z,85.07
2023-04-19T15:56:40.839Z,85.24
2023-04-19T15:59:07.253Z,85.06
2023-04-19T16:01:33.751Z,84.66
2023-04-19T16:04:00.322Z,84.16
2023-04-19T16:06:27.301Z,84.00
2023-04-19T16:08:53.740Z,83.55
2023-04-19T16:11:20.210Z,83.46
2023-04-19T16:13:46.707Z,82.92
2023-04-19T16:16:13.186Z,83.19
2023-04-19T16:18:39.587Z,82.59
2023-04-19T16:21:06.058Z,81.87
2023-04-19T16:23:32.512Z,81.69
2023-04-19T16:25:58.920Z,81.64
2023-04-19T16:28:25.329Z,81.91
2023-04-19T16:30:51.748Z,81.69
2023-04-19T16:33:18.197Z,81.88
2023-04-19T16:35:45.162Z,81.06
2023-04-19T16:38:11.561Z,81.05
2023-04-19T16:40:37.960Z,80.62
2023-04-19T16:43:06.177Z,81.04
2023-04-19T16:45:32.605Z,81.36
2023-04-19T16:47:59.153Z,80.94
2023-04-19T16:50:25.648Z,81.73
2023-04-19T16:52:52.065Z,82.31
2023-04-19T16:55:18.626Z,82.65
2023-04-19T16:57:45.016Z,83.20
2023-04-19T17:00:13.185Z,83.50
2023-04-19T17:02:39.674Z,83.91
2023-04-19T17:05:06.907Z,83.86
2023-04-19T17:07:33.551Z,84.09
2023-04-19T17:10:00.037Z,84.08
2023-04-19T17:12:26.579Z,83.89
2023-04-19T17:14:52.987Z,83.07
2023-04-19T17:17:20.035Z,82.54
2023-04-19T17:19:46.971Z,81.10
2023-04-19T17:22:16.226Z,79.43
2023-04-19T17:24:42.881Z,77.89
2023-04-19T17:27:09.457Z,76.50
2023-04-19T17:29:36.099Z,75.23
2023-04-19T17:32:02.568Z,73.84
2023-04-19T17:34:29.004Z,72.23
2023-04-19T17:36:55.455Z,71.14
2023-04-19T17:39:21.875Z,70.12
2023-04-19T17:41:49.795Z,68.70
2023-04-19T17:44:16.172Z,67.58
2023-04-19T17:46:42.623Z,67.09
2023-04-19T17:49:09.184Z,66.70
2023-04-19T17:51:35.650Z,66.09
2023-04-19T17:54:02.114Z,65.68
2023-04-19T17:56:28.550Z,65.18
2023-04-19T17:58:55.155Z,64.90
2023-04-19T18:01:21.633Z,65.03
2023-04-19T18:03:48.192Z,65.14
2023-04-19T18:06:16.338Z,64.96
2023-04-19T18:08:46.085Z,65.38
2023-04-19T18:11:12.707Z,65.38
2023-04-19T18:13:39.136Z,65.33
2023-04-19T18:16:05.728Z,65.91
2023-04-19T18:18:32.355Z,65.42
2023-04-19T18:20:59.778Z,65.52
2023-04-19T18:23:26.179Z,65.66
2023-04-19T18:25:54.262Z,65.33
2023-04-19T18:28:21.152Z,65.24
2023-04-19T18:30:47.941Z,65.73
2023-04-19T18:33:14.332Z,66.07
2023-04-19T18:35:41.079Z,65.75
2023-04-19T18:38:07.525Z,65.90
2023-04-19T18:40:33.889Z,65.76
2023-04-19T18:43:00.566Z,65.77
2023-04-19T18:45:28.826Z,65.95
2023-04-19T18:47:55.464Z,65.73
2023-04-19T18:50:21.927Z,65.51
2023-04-19T18:52:48.325Z,66.33
2023-04-19T18:55:15.940Z,66.07
2023-04-19T18:57:42.533Z,66.69
2023-04-19T19:00:12.094Z,66.54
2023-04-19T19:02:40.692Z,66.44
2023-04-19T19:05:08.662Z,67.17
2023-04-19T19:07:37.118Z,66.82
2023-04-19T19:10:17.302Z,66.87
2023-04-19T19:12:45.492Z,67.28
2023-04-19T19:15:12.113Z,66.94
2023-04-19T19:17:38.644Z,68.09
2023-04-19T19:20:06.676Z,68.04
2023-04-19T19:22:34.093Z,67.39
2023-04-19T19:25:01.101Z,67.24
2023-04-19T19:27:27.660Z,67.05
2023-04-19T19:29:54.193Z,67.52
2023-04-19T19:32:20.795Z,67.73
2023-04-19T19:34:55.647Z,67.95
2023-04-19T19:37:27.409Z,67.70
2023-04-19T19:39:56.182Z,66.90
2023-04-19T19:42:23.577Z,66.99
2023-04-19T19:44:54.153Z,67.60
2023-04-19T19:47:20.918Z,66.73
2023-04-19T19:50:17.504Z,67.17
2023-04-19T19:52:34.060Z,66.56
2023-04-19T19:55:01.120Z,67.70
2023-04-19T20:00:12.968Z,68.98
2023-04-19T20:02:54.720Z,67.97
2023-04-19T20:05:23.089Z,67.64
2023-04-19T20:10:19.820Z,67.60
2023-04-19T20:12:47.127Z,68.08
2023-04-19T20:15:14.011Z,67.69
2023-04-19T20:17:40.702Z,68.48
2023-04-19T20:20:08.906Z,68.52
2023-04-19T20:22:35.795Z,68.63
2023-04-19T20:25:02.270Z,68.43
2023-04-19T20:27:28.905Z,68.90
2023-04-19T20:29:56.710Z,67.87
2023-04-19T20:32:23.602Z,67.42
2023-04-19T20:34:50.824Z,67.03
2023-04-19T20:37:18.198Z,67.48
2023-04-19T20:39:44.652Z,66.59
2023-04-19T20:42:11.101Z,67.02
2023-04-19T20:44:37.494Z,67.01
2023-04-19T20:47:03.926Z,67.34
2023-04-19T20:49:30.361Z,66.18
2023-04-19T20:51:56.753Z,66.18
2023-04-19T20:54:23.173Z,66.39
2023-04-19T20:56:49.582Z,66.78
2023-04-19T20:59:16.263Z,66.20
2023-04-19T21:01:43.118Z,66.63
2023-04-19T21:04:09.781Z,66.47
2023-04-19T21:06:36.347Z,67.12
2023-04-19T21:09:02.813Z,67.06
2023-04-19T21:11:29.188Z,66.77
2023-04-19T21:13:55.602Z,66.46
2023-04-19T21:16:22.067Z,66.10
2023-04-19T21:18:48.675Z,66.13
2023-04-19T21:21:15.148Z,66.53
2023-04-19T21:23:41.541Z,66.89
2023-04-19T21:26:09.486Z,66.80
2023-04-19T21:28:36.113Z,66.71
2023-04-19T21:31:02.857Z,66.91
2023-04-19T21:33:29.338Z,66.89
2023-04-19T21:35:55.844Z,66.82
2023-04-19T21:38:22.246Z,68.03
2023-04-19T21:40:49.383Z,67.31
2023-04-19T21:43:16.924Z,68.63
2023-04-19T21:45:43.447Z,67.82
2023-04-19T21:48:09.944Z,69.05
2023-04-19T21:50:36.368Z,69.02
2023-04-19T21:53:02.759Z,68.33
2023-04-19T21:55:29.272Z,68.69
2023-04-19T21:57:55.670Z,68.89
2023-04-19T22:00:22.892Z,68.24
2023-04-19T22:02:49.531Z,68.13
2023-04-19T22:05:16.666Z,68.27
2023-04-19T22:07:43.163Z,69.20
2023-04-19T22:10:09.611Z,69.17
2023-04-19T22:12:40.600Z,68.84
2023-04-19T22:15:11.776Z,68.70
2023-04-19T22:17:38.428Z,68.50
2023-04-19T22:20:09.081Z,68.38
2023-04-19T22:22:35.623Z,68.44
2023-04-19T22:25:02.148Z,69.20
2023-04-19T22:27:28.561Z,68.49
2023-04-19T22:29:55.027Z,68.51
2023-04-19T22:32:21.567Z,68.96
2023-04-19T22:34:48.018Z,68.93
2023-04-19T22:37:14.520Z,68.85
2023-04-19T22:39:41.001Z,69.35
2023-04-19T22:42:07.489Z,68.85
2023-04-19T22:44:33.890Z,68.47
2023-04-19T22:47:00.359Z,69.67
2023-04-19T22:49:26.834Z,69.86
2023-04-19T22:51:54.690Z,70.16
2023-04-19T22:54:21.076Z,70.15
2023-04-19T22:56:47.488Z,70.70
2023-04-19T22:59:13.908Z,70.49
2023-04-19T23:01:40.491Z,69.89
2023-04-19T23:04:06.948Z,71.21
2023-04-19T23:06:33.731Z,71.04
2023-04-19T23:09:02.997Z,70.81
2023-04-19T23:11:29.861Z,71.64
2023-04-19T23:13:56.371Z,71.78
2023-04-19T23:16:24.384Z,71.56
2023-04-19T23:18:50.876Z,71.71
2023-04-19T23:21:17.304Z,72.32
2023-04-19T23:23:43.748Z,72.20
2023-04-19T23:26:10.284Z,72.70
2023-04-19T23:28:36.755Z,72.16
2023-04-19T23:31:03.189Z,72.94
2023-04-19T23:33:29.628Z,72.67
2023-04-19T23:35:56.101Z,73.51
2023-04-19T23:38:22.495Z,73.30
2023-04-19T23:40:48.908Z,73.87
2023-04-19T23:43:15.309Z,74.34
2023-04-19T23:45:41.699Z,74.25
2023-04-19T23:48:08.187Z,74.92
2023-04-19T23:50:34.614Z,73.79
2023-04-19T23:53:02.807Z,74.53
2023-04-19T23:55:29.204Z,74.59
2023-04-19T23:57:55.619Z,73.94
